Time;durP1;ratioP1;P1;durP2;ratioP2;P2;SDS_P1;SDS_P2;PMS_P1;PMS_P2;Temp;Humidity;BMP_temperature;BMP_pressure;BME280_temperature;BME280_humidity;BME280_pressure;Samples;Min_cycle;Max_cycle;Signal;HPM_P1;HPM_P2
2021/01/25 00:01:59;;;;;;;6.32;3.83;;;1.90;99.90;;;;;;5071425;28;20118;-68
2021/01/25 00:04:25;;;;;;;8.93;4.30;;;1.90;99.90;;;;;;5071344;28;20476;-68
2021/01/25 00:06:52;;;;;;;8.38;4.30;;;1.90;99.90;;;;;;5070073;28;20041;-68
2021/01/25 00:09:18;;;;;;;7.00;3.72;;;1.90;99.90;;;;;;5071440;28;20555;-68
2021/01/25 00:11:44;;;;;;;7.95;4.10;;;1.90;99.90;;;;;;5071198;28;20048;-68
2021/01/25 00:14:11;;;;;;;6.68;3.85;;;1.90;99.90;;;;;;5070307;28;20070;-68
2021/01/25 00:16:37;;;;;;;6.75;4.22;;;1.90;99.90;;;;;;5071684;28;20052;-68
2021/01/25 00:19:04;;;;;;;8.18;4.50;;;1.90;99.90;;;;;;5072392;28;20471;-68
2021/01/25 00:21:30;;;;;;;9.38;4.70;;;1.90;99.90;;;;;;5071405;28;20049;-68
2021/01/25 00:23:56;;;;;;;7.55;4.32;;;1.90;99.90;;;;;;5072158;28;20369;-68
2021/01/25 00:26:22;;;;;;;6.97;4.10;;;1.90;99.90;;;;;;5071399;28;20123;-68
2021/01/25 00:28:48;;;;;;;4.70;3.75;;;1.90;99.90;;;;;;5069915;28;20057;-68
2021/01/25 00:31:14;;;;;;;6.53;3.40;;;1.90;99.90;;;;;;5071153;28;20421;-68
2021/01/25 00:33:41;;;;;;;7.03;4.07;;;1.90;99.90;;;;;;5071220;28;20082;-68
2021/01/25 00:36:08;;;;;;;6.57;4.32;;;1.90;99.90;;;;;;5071097;28;20045;-68
2021/01/25 00:38:34;;;;;;;6.85;4.35;;;1.90;99.90;;;;;;5071452;28;20477;-68
2021/01/25 00:41:01;;;;;;;7.43;4.20;;;1.90;99.90;;;;;;5070960;28;20436;-68
2021/01/25 00:43:27;;;;;;;8.60;4.40;;;1.90;99.90;;;;;;5070923;28;20143;-68
2021/01/25 00:45:53;;;;;;;10.18;4.40;;;1.90;99.90;;;;;;5070470;28;20040;-68
2021/01/25 00:48:20;;;;;;;7.43;4.40;;;1.90;99.90;;;;;;5071095;28;20043;-68
2021/01/25 00:50:46;;;;;;;12.43;4.63;;;1.90;99.90;;;;;;5071077;28;20440;-67
2021/01/25 00:53:12;;;;;;;7.85;3.90;;;1.90;99.90;;;;;;5070436;28;20090;-68
2021/01/25 00:55:39;;;;;;;8.15;4.28;;;1.90;99.90;;;;;;5070630;28;20055;-68
2021/01/25 00:58:05;;;;;;;6.70;4.05;;;1.90;99.90;;;;;;5070370;28;20091;-68
2021/01/25 01:00:32;;;;;;;6.40;3.90;;;1.90;99.90;;;;;;5070518;28;20155;-68
2021/01/25 01:02:58;;;;;;;8.63;4.20;;;1.90;99.90;;;;;;5070748;28;20047;-68
2021/01/25 01:05:24;;;;;;;8.95;4.25;;;1.90;99.90;;;;;;5070798;28;20044;-68
2021/01/25 01:07:51;;;;;;;6.57;3.42;;;1.90;99.90;;;;;;5070690;28;20048;-68
2021/01/25 01:10:17;;;;;;;7.50;3.83;;;1.90;99.90;;;;;;5070495;28;20053;-68
2021/01/25 01:12:43;;;;;;;10.15;3.45;;;1.90;99.90;;;;;;5070074;28;20076;-68
2021/01/25 01:15:12;;;;;;;6.75;3.80;;;2.00;99.90;;;;;;5070870;28;20044;-68
2021/01/25 01:17:40;;;;;;;7.85;4.30;;;2.00;99.90;;;;;;5070997;28;20057;-68
2021/01/25 01:20:07;;;;;;;6.37;3.80;;;1.90;99.90;;;;;;5071072;28;20471;-68
2021/01/25 01:22:35;;;;;;;7.38;3.80;;;1.90;99.90;;;;;;5069848;28;20397;-68
2021/01/25 01:25:05;;;;;;;9.35;4.40;;;1.90;99.90;;;;;;5070416;28;20040;-68
2021/01/25 01:27:32;;;;;;;6.00;3.42;;;1.90;99.90;;;;;;5070523;28;20551;-68
2021/01/25 01:29:58;;;;;;;9.23;4.28;;;1.90;99.90;;;;;;5068891;28;20403;-68
2021/01/25 01:32:25;;;;;;;8.70;4.03;;;1.90;99.90;;;;;;5074063;28;20448;-68
2021/01/25 01:34:51;;;;;;;5.07;2.95;;;1.90;99.90;;;;;;5074227;28;20051;-68
2021/01/25 01:37:18;;;;;;;7.55;3.47;;;1.90;99.90;;;;;;5074022;28;20052;-68
2021/01/25 01:39:44;;;;;;;4.60;2.90;;;1.90;99.90;;;;;;5073902;28;20066;-68
2021/01/25 01:42:15;;;;;;;6.18;3.33;;;1.90;99.90;;;;;;5073793;28;20378;-67
2021/01/25 01:44:43;;;;;;;6.80;3.42;;;1.90;99.90;;;;;;5071297;28;20135;-68
2021/01/25 01:47:20;;;;;;;6.82;3.47;;;1.80;99.90;;;;;;5072139;28;20040;-68
2021/01/25 01:49:50;;;;;;;7.20;3.50;;;1.80;99.90;;;;;;5073848;28;20120;-68
2021/01/25 01:52:16;;;;;;;7.65;4.13;;;1.80;99.90;;;;;;5073879;28;20139;-68
2021/01/25 01:54:44;;;;;;;6.07;3.58;;;1.80;99.90;;;;;;5073416;28;20437;-68
2021/01/25 01:57:10;;;;;;;7.75;4.18;;;1.80;99.90;;;;;;5073735;28;20437;-68
2021/01/25 01:59:37;;;;;;;7.60;4.05;;;1.80;99.90;;;;;;5073538;28;20487;-69
2021/01/25 02:02:03;;;;;;;7.05;4.25;;;1.80;99.90;;;;;;5073390;28;20048;-68
2021/01/25 02:04:32;;;;;;;7.15;4.05;;;1.80;99.90;;;;;;5072499;28;20419;-68
2021/01/25 02:07:01;;;;;;;6.77;3.77;;;1.80;99.90;;;;;;5073368;28;20041;-68
2021/01/25 02:09:32;;;;;;;7.68;4.00;;;1.80;99.90;;;;;;5069676;28;20284;-68
2021/01/25 02:11:59;;;;;;;7.32;4.10;;;1.80;99.90;;;;;;5073684;28;20154;-67
2021/01/25 02:14:26;;;;;;;7.22;4.53;;;1.80;99.90;;;;;;5072643;28;20044;-68
2021/01/25 02:16:52;;;;;;;6.07;3.50;;;1.80;99.90;;;;;;5073252;28;20131;-68
2021/01/25 02:19:30;;;;;;;5.95;3.90;;;1.80;99.90;;;;;;5073480;28;20064;-68
2021/01/25 02:22:18;;;;;;;7.28;4.10;;;1.90;99.90;;;;;;5073215;28;20051;-68
2021/01/25 02:24:54;;;;;;;6.45;3.80;;;1.90;99.90;;;;;;5072742;28;20071;-68
2021/01/25 02:27:35;;;;;;;6.90;3.40;;;1.80;99.90;;;;;;5073740;28;20040;-68
2021/01/25 02:30:05;;;;;;;6.60;4.15;;;1.80;99.90;;;;;;5061097;28;20087;-68
2021/01/25 02:32:34;;;;;;;6.50;3.80;;;1.90;99.90;;;;;;5073610;28;20483;-68
2021/01/25 02:35:03;;;;;;;5.97;3.38;;;1.80;99.90;;;;;;5073176;28;20123;-68
2021/01/25 02:37:31;;;;;;;6.07;3.33;;;1.90;99.90;;;;;;5073372;28;20522;-68
2021/01/25 02:39:59;;;;;;;7.07;3.42;;;1.90;99.90;;;;;;5072396;28;20044;-68
2021/01/25 02:42:27;;;;;;;5.90;3.78;;;1.80;99.90;;;;;;5071861;28;20084;-68
2021/01/25 02:44:54;;;;;;;7.35;3.97;;;1.80;99.90;;;;;;5072650;28;20048;-68
2021/01/25 02:47:21;;;;;;;6.65;3.85;;;1.90;99.90;;;;;;5072663;28;20126;-68
2021/01/25 02:49:49;;;;;;;8.52;4.00;;;1.90;99.90;;;;;;5072857;28;20040;-68
2021/01/25 02:52:15;;;;;;;7.45;4.22;;;1.90;99.90;;;;;;5072701;28;20095;-68
2021/01/25 02:54:42;;;;;;;6.57;3.90;;;1.90;99.90;;;;;;5072807;28;20063;-68
2021/01/25 02:57:10;;;;;;;6.78;3.83;;;1.90;99.90;;;;;;5072603;28;20045;-68
2021/01/25 02:59:38;;;;;;;5.90;3.33;;;1.80;99.90;;;;;;5072210;28;20484;-68
2021/01/25 03:02:08;;;;;;;7.80;4.40;;;1.80;99.90;;;;;;5072315;28;20045;-68
2021/01/25 03:04:38;;;;;;;7.20;3.65;;;1.80;99.90;;;;;;5072216;28;20179;-68
2021/01/25 03:07:04;;;;;;;6.78;3.53;;;1.80;99.90;;;;;;5072948;28;20127;-68
2021/01/25 03:09:32;;;;;;;7.05;4.05;;;1.80;99.90;;;;;;5072911;28;20455;-68
2021/01/25 03:12:01;;;;;;;6.38;3.88;;;1.70;99.90;;;;;;5072023;28;20044;-68
2021/01/25 03:14:28;;;;;;;8.45;4.25;;;1.70;99.90;;;;;;5071613;28;20055;-68
2021/01/25 03:16:55;;;;;;;9.23;4.72;;;1.70;99.90;;;;;;5069001;28;20052;-68
2021/01/25 03:19:22;;;;;;;6.65;3.97;;;1.60;99.90;;;;;;5072561;28;20053;-68
2021/01/25 03:21:50;;;;;;;7.70;4.20;;;1.60;99.90;;;;;;5071415;28;20476;-68
2021/01/25 03:24:17;;;;;;;6.75;4.15;;;1.60;99.90;;;;;;5074693;28;20055;-68
2021/01/25 03:26:43;;;;;;;8.02;4.10;;;1.60;99.90;;;;;;5071968;28;20051;-68
2021/01/25 03:29:11;;;;;;;7.75;4.13;;;1.50;99.90;;;;;;5071167;28;20459;-68
2021/01/25 03:31:38;;;;;;;8.13;4.72;;;1.50;99.90;;;;;;5072047;28;20132;-68
2021/01/25 03:34:06;;;;;;;7.55;4.32;;;1.50;99.90;;;;;;5070708;28;20414;-68
2021/01/25 03:36:33;;;;;;;7.88;4.82;;;1.50;99.90;;;;;;5071696;28;20079;-68
2021/01/25 03:39:00;;;;;;;6.40;4.20;;;1.40;99.90;;;;;;5072084;28;20048;-68
2021/01/25 03:41:26;;;;;;;8.05;4.25;;;1.40;99.90;;;;;;5071428;28;20045;-67
2021/01/25 03:43:53;;;;;;;7.95;4.25;;;1.40;99.90;;;;;;5071181;28;20046;-68
2021/01/25 03:46:19;;;;;;;9.00;4.25;;;1.40;99.90;;;;;;5071706;28;20543;-67
2021/01/25 03:48:46;;;;;;;8.45;4.18;;;1.40;99.90;;;;;;5071308;28;20131;-67
2021/01/25 03:51:14;;;;;;;8.43;4.35;;;1.40;99.90;;;;;;5071590;28;20063;-68
2021/01/25 03:53:41;;;;;;;8.68;4.70;;;1.40;99.90;;;;;;5071075;28;20074;-68
2021/01/25 03:56:07;;;;;;;10.25;5.07;;;1.30;99.90;;;;;;5071937;28;20132;-67
2021/01/25 03:58:33;;;;;;;8.77;4.57;;;1.30;99.90;;;;;;5071162;28;20052;-67
2021/01/25 04:01:00;;;;;;;10.68;5.03;;;1.30;99.90;;;;;;5068086;28;20062;-67
2021/01/25 04:03:26;;;;;;;8.40;4.57;;;1.30;99.90;;;;;;5068967;28;20075;-67
2021/01/25 04:05:53;;;;;;;11.23;4.95;;;1.30;99.90;;;;;;5069244;28;20499;-68
2021/01/25 04:08:20;;;;;;;8.18;4.95;;;1.20;99.90;;;;;;5068695;28;20051;-67
2021/01/25 04:10:46;;;;;;;8.05;4.88;;;1.20;99.90;;;;;;5071527;28;20050;-67
2021/01/25 04:13:12;;;;;;;9.27;5.10;;;1.20;99.90;;;;;;5071246;28;20040;-67
2021/01/25 04:15:39;;;;;;;9.38;4.63;;;1.20;99.90;;;;;;5068686;28;20048;-67
2021/01/25 04:18:05;;;;;;;8.93;4.82;;;1.20;99.90;;;;;;5069758;28;20478;-67
2021/01/25 04:20:31;;;;;;;7.90;4.28;;;1.20;99.90;;;;;;5070178;28;20054;-67
2021/01/25 04:22:59;;;;;;;8.50;4.47;;;1.20;99.90;;;;;;5071590;28;20040;-67
2021/01/25 04:25:26;;;;;;;8.75;4.57;;;1.20;99.90;;;;;;5073034;28;20049;-67
2021/01/25 04:27:53;;;;;;;7.90;4.25;;;1.20;99.90;;;;;;5072395;28;20152;-67
2021/01/25 04:30:19;;;;;;;8.70;4.88;;;1.10;99.90;;;;;;5066939;28;20052;-66
2021/01/25 04:32:46;;;;;;;9.88;4.97;;;1.10;99.90;;;;;;5068460;28;20131;-67
2021/01/25 04:35:14;;;;;;;8.60;4.95;;;1.10;99.90;;;;;;5067849;28;20483;-67
2021/01/25 04:37:42;;;;;;;9.52;4.75;;;1.10;99.90;;;;;;5071951;28;20135;-67
2021/01/25 04:40:10;;;;;;;8.70;4.28;;;1.00;99.90;;;;;;5073054;28;20060;-67
2021/01/25 04:42:38;;;;;;;9.27;4.72;;;1.00;99.90;;;;;;5068511;28;20091;-67
2021/01/25 04:45:06;;;;;;;8.13;5.05;;;1.00;99.90;;;;;;5069315;28;20056;-67
2021/01/25 04:47:33;;;;;;;8.20;4.57;;;0.90;99.90;;;;;;5066425;28;20056;-67
2021/01/25 04:50:01;;;;;;;7.88;4.40;;;0.90;99.90;;;;;;5072657;28;20048;-67
2021/01/25 04:52:29;;;;;;;9.20;4.47;;;0.90;99.90;;;;;;5067788;28;20045;-67
2021/01/25 04:54:57;;;;;;;8.55;4.25;;;0.90;99.90;;;;;;5068512;28;20040;-67
2021/01/25 04:57:23;;;;;;;8.55;5.25;;;0.90;99.90;;;;;;5068275;28;20045;-67
2021/01/25 04:59:52;;;;;;;8.55;4.53;;;0.90;99.90;;;;;;5067822;28;20071;-67
2021/01/25 05:02:20;;;;;;;8.02;4.68;;;0.90;99.90;;;;;;5070942;28;20048;-67
2021/01/25 05:04:46;;;;;;;8.95;4.93;;;0.90;99.90;;;;;;5069813;28;20121;-67
2021/01/25 05:07:13;;;;;;;8.43;4.22;;;0.90;99.90;;;;;;5075768;28;20135;-67
2021/01/25 05:09:40;;;;;;;6.75;4.43;;;0.90;99.90;;;;;;5071987;28;20040;-67
2021/01/25 05:12:11;;;;;;;7.75;4.22;;;0.80;99.90;;;;;;5078522;28;20044;-67
2021/01/25 05:14:39;;;;;;;7.15;4.20;;;0.80;99.90;;;;;;5068254;28;20070;-67
2021/01/25 05:17:07;;;;;;;8.55;4.80;;;0.80;99.90;;;;;;5073471;28;20570;-67
2021/01/25 05:19:34;;;;;;;8.52;4.43;;;0.80;99.90;;;;;;5071932;28;20079;-67
2021/01/25 05:22:00;;;;;;;10.55;5.22;;;0.80;99.90;;;;;;5071681;28;20052;-67
2021/01/25 05:24:27;;;;;;;7.10;4.57;;;0.80;99.90;;;;;;5071553;28;20041;-67
2021/01/25 05:26:58;;;;;;;9.30;4.97;;;0.80;99.90;;;;;;5069598;28;20044;-67
2021/01/25 05:29:27;;;;;;;8.38;4.55;;;0.80;99.90;;;;;;5073007;28;20545;-68
2021/01/25 05:31:55;;;;;;;8.77;3.95;;;0.70;99.90;;;;;;5072672;28;20207;-67
2021/01/25 05:34:21;;;;;;;6.93;4.05;;;0.70;99.90;;;;;;5072333;28;20048;-67
2021/01/25 05:36:48;;;;;;;6.32;3.80;;;0.60;99.90;;;;;;5072338;28;20044;-68
2021/01/25 05:39:19;;;;;;;7.72;4.32;;;0.60;99.90;;;;;;5070990;28;20050;-68
2021/01/25 05:41:56;;;;;;;6.75;3.80;;;0.60;99.90;;;;;;5058938;28;20502;-68
2021/01/25 05:44:23;;;;;;;8.20;4.20;;;0.50;99.90;;;;;;5072843;28;20059;-68
2021/01/25 05:46:50;;;;;;;7.13;4.03;;;0.50;99.90;;;;;;5074447;28;20044;-68
2021/01/25 05:49:26;;;;;;;8.52;4.30;;;0.50;99.90;;;;;;5072840;28;20060;-68
2021/01/25 05:51:53;;;;;;;8.45;4.50;;;0.50;99.90;;;;;;5072243;28;20055;-68
2021/01/25 05:54:23;;;;;;;6.78;4.40;;;0.50;99.90;;;;;;5074178;28;20413;-68
2021/01/25 05:56:50;;;;;;;7.90;4.25;;;0.50;99.90;;;;;;5074127;28;20070;-68
2021/01/25 05:59:17;;;;;;;7.78;4.10;;;0.40;99.90;;;;;;5073653;28;20351;-68
2021/01/25 06:01:44;;;;;;;8.93;4.97;;;0.40;99.90;;;;;;5073578;28;20147;-68
2021/01/25 06:04:16;;;;;;;8.13;4.43;;;0.40;99.90;;;;;;5073897;28;20072;-68
2021/01/25 06:07:04;;;;;;;8.88;5.10;;;0.40;99.90;;;;;;5074177;28;20076;-68
2021/01/25 06:09:43;;;;;;;8.57;4.38;;;0.30;99.90;;;;;;5073877;28;20465;-68
2021/01/25 06:12:09;;;;;;;8.43;4.38;;;0.30;99.90;;;;;;5074139;28;20054;-68
2021/01/25 06:14:43;;;;;;;11.45;4.40;;;0.30;99.90;;;;;;5072758;28;20054;-68
2021/01/25 06:17:14;;;;;;;7.25;4.40;;;0.30;99.90;;;;;;5073162;28;20060;-68
2021/01/25 06:19:41;;;;;;;7.55;4.28;;;0.30;99.90;;;;;;5073698;28;20483;-68
2021/01/25 06:22:10;;;;;;;7.47;4.18;;;0.20;99.90;;;;;;5073768;28;20324;-68
2021/01/25 06:24:37;;;;;;;;;;;0.20;99.90;;;;;;5074512;28;20452;-68
2021/01/25 06:27:04;;;;;;;6.15;3.58;;;0.20;99.90;;;;;;5073612;28;19921;-68
2021/01/25 06:29:31;;;;;;;6.25;3.78;;;0.20;99.90;;;;;;5072112;28;20177;-68
2021/01/25 06:32:00;;;;;;;6.78;4.35;;;0.20;99.90;;;;;;5072888;28;20091;-68
2021/01/25 06:34:27;;;;;;;9.70;4.18;;;0.20;99.90;;;;;;5073247;28;20044;-67
2021/01/25 06:36:54;;;;;;;8.43;4.20;;;0.10;99.90;;;;;;5073152;28;20055;-68
2021/01/25 06:39:29;;;;;;;7.10;4.15;;;0.10;99.90;;;;;;5073328;28;20048;-68
2021/01/25 06:42:03;;;;;;;8.38;4.10;;;0.10;99.90;;;;;;5073106;28;20152;-68
2021/01/25 06:44:30;;;;;;;8.43;3.90;;;0.10;99.90;;;;;;5071847;28;20052;-68
2021/01/25 06:46:58;;;;;;;6.90;4.03;;;0.10;99.90;;;;;;5072710;28;20344;-68
2021/01/25 06:49:28;;;;;;;8.57;4.43;;;0.00;99.90;;;;;;5072647;28;20448;-68
2021/01/25 06:51:55;;;;;;;9.03;4.33;;;0.00;99.90;;;;;;5073000;28;20053;-68
2021/01/25 06:54:24;;;;;;;9.60;4.82;;;0.00;99.90;;;;;;5072248;28;20305;-68
2021/01/25 06:56:59;;;;;;;7.53;4.30;;;0.00;99.90;;;;;;5071490;28;20049;-68
2021/01/25 06:59:28;;;;;;;7.07;4.50;;;-0.10;99.90;;;;;;5071646;28;20417;-68
2021/01/25 07:01:55;;;;;;;8.35;4.32;;;-0.10;99.90;;;;;;5071738;28;20048;-68
2021/01/25 07:04:28;;;;;;;6.82;3.75;;;-0.10;99.90;;;;;;5065030;28;20450;-68
2021/01/25 07:06:56;;;;;;;8.55;4.15;;;-0.10;99.90;;;;;;5059526;28;20044;-68
2021/01/25 07:09:25;;;;;;;6.38;3.53;;;-0.10;99.90;;;;;;5057927;28;20049;-68
2021/01/25 07:11:54;;;;;;;7.63;4.20;;;-0.10;99.90;;;;;;5053963;28;20124;-68
2021/01/25 07:14:24;;;;;;;8.98;4.10;;;-0.10;99.90;;;;;;5055199;28;20128;-68
2021/01/25 07:16:52;;;;;;;7.55;4.07;;;-0.10;99.90;;;;;;5057021;28;20056;-68
2021/01/25 07:19:20;;;;;;;8.60;4.25;;;-0.10;99.90;;;;;;5063856;28;20475;-68
2021/01/25 07:21:49;;;;;;;7.50;4.40;;;-0.10;99.90;;;;;;5065616;28;20394;-68
2021/01/25 07:24:26;;;;;;;9.02;4.43;;;-0.20;99.90;;;;;;5066582;28;20095;-68
2021/01/25 07:26:58;;;;;;;7.25;3.70;;;-0.20;99.90;;;;;;5066022;28;20048;-68
2021/01/25 07:29:26;;;;;;;8.93;3.75;;;-0.30;99.90;;;;;;5066308;28;20388;-68
2021/01/25 07:31:54;;;;;;;6.65;4.03;;;-0.30;99.90;;;;;;5069342;28;20085;-68
2021/01/25 07:34:20;;;;;;;7.78;3.95;;;-0.30;99.90;;;;;;5068777;28;20040;-68
2021/01/25 07:36:47;;;;;;;9.10;4.68;;;-0.30;99.90;;;;;;5067456;28;20040;-67
2021/01/25 07:39:15;;;;;;;7.00;3.97;;;-0.30;99.90;;;;;;5067547;28;22881;-67
2021/01/25 07:41:43;;;;;;;6.22;3.70;;;-0.30;99.90;;;;;;5068834;28;20047;-68
2021/01/25 07:44:10;;;;;;;7.90;3.67;;;-0.30;99.90;;;;;;5067107;28;20048;-68
2021/01/25 07:46:37;;;;;;;5.38;3.63;;;-0.30;99.90;;;;;;5065485;28;20045;-68
2021/01/25 07:49:08;;;;;;;8.45;4.55;;;-0.30;99.90;;;;;;5066681;28;20488;-67
2021/01/25 07:51:36;;;;;;;6.40;3.75;;;-0.30;99.90;;;;;;5064251;28;20349;-67
2021/01/25 07:54:04;;;;;;;6.32;3.70;;;-0.30;99.90;;;;;;5065672;28;20144;-67
2021/01/25 07:56:30;;;;;;;7.32;3.72;;;-0.30;99.90;;;;;;5066770;28;20053;-67
2021/01/25 07:59:07;;;;;;;5.38;3.28;;;-0.30;99.90;;;;;;5067574;28;20152;-67
2021/01/25 08:01:42;;;;;;;10.32;4.30;;;-0.30;99.90;;;;;;5066503;28;20056;-67
2021/01/25 08:04:12;;;;;;;5.40;3.35;;;-0.30;99.90;;;;;;5066623;28;20065;-67
2021/01/25 08:06:39;;;;;;;9.98;4.53;;;-0.30;99.90;;;;;;5065725;28;20050;-67
2021/01/25 08:09:09;;;;;;;6.13;3.33;;;-0.30;99.90;;;;;;5067789;28;20131;-67
2021/01/25 08:11:36;;;;;;;6.60;3.53;;;-0.30;99.90;;;;;;5064974;28;20076;-67
2021/01/25 08:14:27;;;;;;;7.25;4.32;;;-0.30;99.90;;;;;;5066742;28;20053;-67
2021/01/25 08:17:18;;;;;;;6.80;4.00;;;-0.30;99.90;;;;;;5067938;28;20043;-67
2021/01/25 08:20:04;;;;;;;7.53;3.88;;;-0.30;99.90;;;;;;5072861;28;20059;-67
2021/01/25 08:22:57;;;;;;;7.70;4.10;;;-0.20;99.90;;;;;;5070976;28;20041;-67
2021/01/25 08:25:28;;;;;;;5.60;3.55;;;-0.20;99.90;;;;;;5068102;28;20055;-68
2021/01/25 08:28:03;;;;;;;6.47;3.78;;;-0.20;99.90;;;;;;5070177;28;20568;-67
2021/01/25 08:30:41;;;;;;;6.05;3.97;;;-0.10;99.90;;;;;;5069143;28;20079;-67
2021/01/25 08:33:10;;;;;;;8.10;4.80;;;-0.10;99.90;;;;;;5071493;28;20101;-67
2021/01/25 08:35:40;;;;;;;9.07;4.78;;;0.00;99.90;;;;;;5074207;28;20147;-67
2021/01/25 08:38:10;;;;;;;7.63;4.68;;;0.00;99.90;;;;;;5073795;28;20052;-67
2021/01/25 08:40:37;;;;;;;;;;;0.10;99.90;;;;;;5074756;28;20131;-67
2021/01/25 08:43:05;;;;;;;6.90;4.38;;;0.20;99.90;;;;;;5076012;28;19935;-66
2021/01/25 08:45:33;;;;;;;7.82;5.25;;;0.20;99.90;;;;;;5074075;28;20045;-67
2021/01/25 08:48:07;;;;;;;9.32;4.80;;;0.30;99.90;;;;;;5077803;28;20060;-67
2021/01/25 08:50:36;;;;;;;7.32;4.40;;;0.30;99.90;;;;;;5074927;28;20127;-66
2021/01/25 08:53:09;;;;;;;8.50;4.50;;;0.40;99.90;;;;;;5077448;28;20178;-67
2021/01/25 08:55:37;;;;;;;8.40;4.68;;;0.40;99.90;;;;;;5078221;28;20135;-67
2021/01/25 08:58:18;;;;;;;7.50;4.43;;;0.50;99.90;;;;;;5071511;28;20051;-67
2021/01/25 09:00:48;;;;;;;7.80;4.32;;;0.60;99.90;;;;;;5073736;28;20048;-67
2021/01/25 09:03:16;;;;;;;7.90;4.10;;;0.80;99.90;;;;;;5074055;28;20489;-67
2021/01/25 09:05:43;;;;;;;8.60;4.32;;;0.80;99.90;;;;;;5071119;28;20491;-67
2021/01/25 09:08:09;;;;;;;7.60;3.85;;;1.00;99.90;;;;;;5071909;28;20048;-68
2021/01/25 09:10:35;;;;;;;7.55;4.72;;;1.10;99.90;;;;;;5077722;28;20044;-68
2021/01/25 09:13:02;;;;;;;7.68;4.97;;;1.20;99.90;;;;;;5077919;28;20048;-68
2021/01/25 09:15:28;;;;;;;8.27;4.80;;;1.20;99.90;;;;;;5076372;28;20046;-68
2021/01/25 09:17:56;;;;;;;7.32;4.57;;;1.40;99.90;;;;;;5074174;28;20413;-68
2021/01/25 09:20:23;;;;;;;9.43;5.57;;;1.50;99.90;;;;;;5078341;28;20044;-67
2021/01/25 09:22:49;;;;;;;10.63;6.00;;;1.70;99.90;;;;;;5076928;28;20052;-68
2021/01/25 09:25:17;;;;;;;13.55;6.88;;;2.00;99.90;;;;;;5076164;28;20037;-68
2021/01/25 09:27:43;;;;;;;12.23;7.00;;;2.20;99.90;;;;;;5072830;28;20124;-68
2021/01/25 09:30:12;;;;;;;9.82;6.20;;;2.50;99.90;;;;;;5076838;28;20484;-68
2021/01/25 09:32:39;;;;;;;12.05;6.57;;;2.70;99.90;;;;;;5074007;28;20143;-68
2021/01/25 09:35:11;;;;;;;14.10;7.15;;;3.10;99.90;;;;;;5073472;28;20074;-68
2021/01/25 09:37:37;;;;;;;14.98;7.53;;;3.40;99.90;;;;;;5077203;28;20059;-68
2021/01/25 09:40:05;;;;;;;12.20;6.82;;;3.70;99.90;;;;;;5076829;28;20052;-68
2021/01/25 09:42:31;;;;;;;13.43;7.27;;;4.00;99.90;;;;;;5075129;28;20054;-68
2021/01/25 09:45:11;;;;;;;13.82;6.97;;;4.20;99.90;;;;;;5074888;28;20045;-68
2021/01/25 09:47:37;;;;;;;11.50;6.82;;;4.40;99.90;;;;;;5075946;28;20033;-68
2021/01/25 09:50:05;;;;;;;14.40;8.15;;;4.60;99.90;;;;;;5073916;28;20048;-68
2021/01/25 09:52:31;;;;;;;11.52;7.18;;;4.80;99.90;;;;;;5075633;28;20051;-68
2021/01/25 09:54:57;;;;;;;15.80;8.88;;;4.80;99.90;;;;;;5076370;28;20536;-68
2021/01/25 09:57:24;;;;;;;14.68;8.43;;;4.80;99.90;;;;;;5076681;28;20049;-68
2021/01/25 09:59:51;;;;;;;11.90;7.10;;;4.70;99.90;;;;;;5077834;28;20064;-67
2021/01/25 10:02:17;;;;;;;15.48;8.10;;;4.70;99.90;;;;;;5072798;28;20052;-67
2021/01/25 10:04:44;;;;;;;12.73;7.50;;;4.60;99.90;;;;;;5073237;28;20124;-67
2021/01/25 10:07:10;;;;;;;12.07;7.53;;;4.60;99.90;;;;;;5075498;28;20044;-68
2021/01/25 10:09:37;;;;;;;12.13;7.45;;;4.60;99.90;;;;;;5074392;28;20051;-68
2021/01/25 10:12:04;;;;;;;15.55;7.32;;;4.60;99.90;;;;;;5072794;28;20044;-68
2021/01/25 10:14:32;;;;;;;13.65;7.05;;;4.60;99.90;;;;;;5071986;28;20051;-68
2021/01/25 10:16:59;;;;;;;12.00;6.88;;;4.70;99.90;;;;;;5075425;28;20434;-67
2021/01/25 10:19:25;;;;;;;12.38;7.20;;;4.80;99.90;;;;;;5072022;28;20044;-68
2021/01/25 10:21:52;;;;;;;12.50;6.82;;;5.00;99.90;;;;;;5073007;28;20036;-68
2021/01/25 10:24:19;;;;;;;12.05;7.28;;;5.20;99.90;;;;;;5072845;28;20541;-68
2021/01/25 10:26:45;;;;;;;12.43;6.60;;;5.40;99.90;;;;;;5075129;28;20049;-67
2021/01/25 10:29:16;;;;;;;12.18;6.82;;;5.60;99.90;;;;;;5074534;28;20135;-68
2021/01/25 10:31:42;;;;;;;12.75;7.50;;;5.80;99.90;;;;;;5073517;28;20049;-69
2021/01/25 10:34:08;;;;;;;13.80;7.45;;;6.00;99.90;;;;;;5075613;28;20052;-67
2021/01/25 10:36:35;;;;;;;13.57;8.52;;;6.30;99.90;;;;;;5073513;28;20047;-68
2021/01/25 10:39:04;;;;;;;10.70;7.05;;;6.60;99.90;;;;;;5073714;28;20059;-68
2021/01/25 10:41:31;;;;;;;14.05;7.72;;;6.90;99.90;;;;;;5075957;28;20040;-68
2021/01/25 10:43:59;;;;;;;11.40;7.30;;;7.20;99.90;;;;;;5073706;28;20452;-68
2021/01/25 10:46:25;;;;;;;12.70;7.88;;;7.50;99.90;;;;;;5071401;28;20067;-67
2021/01/25 10:48:51;;;;;;;9.50;6.15;;;7.80;99.90;;;;;;5075448;28;20129;-68
2021/01/25 10:51:17;;;;;;;9.43;5.95;;;8.10;99.90;;;;;;5073082;28;20058;-67
2021/01/25 10:53:43;;;;;;;9.90;6.13;;;8.30;99.90;;;;;;5072479;28;20407;-67
2021/01/25 10:56:09;;;;;;;9.65;5.97;;;8.50;99.90;;;;;;5074424;28;20060;-68
2021/01/25 10:58:37;;;;;;;9.30;5.45;;;8.70;99.90;;;;;;5076050;28;20053;-68
2021/01/25 11:01:03;;;;;;;8.27;5.25;;;8.80;99.90;;;;;;5073291;28;20431;-68
2021/01/25 11:03:29;;;;;;;6.25;4.60;;;9.00;99.90;;;;;;5073155;28;20059;-68
2021/01/25 11:05:56;;;;;;;8.55;4.70;;;9.10;99.90;;;;;;5076722;28;20044;-68
2021/01/25 11:08:22;;;;;;;8.38;5.03;;;9.20;99.90;;;;;;5075202;28;20041;-67
2021/01/25 11:10:48;;;;;;;6.68;4.47;;;9.30;99.90;;;;;;5074148;28;20051;-68
2021/01/25 11:13:15;;;;;;;8.15;4.47;;;9.30;99.90;;;;;;5068320;28;20342;-67
2021/01/25 11:15:41;;;;;;;7.00;4.55;;;9.30;99.90;;;;;;5069883;28;20041;-67
2021/01/25 11:18:07;;;;;;;8.93;4.57;;;9.50;99.90;;;;;;5073626;28;20051;-67
2021/01/25 11:20:34;;;;;;;7.07;4.40;;;9.70;99.90;;;;;;5073864;28;20049;-69
2021/01/25 11:23:01;;;;;;;6.13;3.85;;;10.00;99.90;;;;;;5067270;28;20091;-68
2021/01/25 11:25:27;;;;;;;5.82;4.05;;;10.30;99.90;;;;;;5074652;28;20535;-67
2021/01/25 11:27:54;;;;;;;6.68;4.35;;;10.40;99.90;;;;;;5074484;28;20448;-67
2021/01/25 11:30:21;;;;;;;5.97;3.70;;;10.50;99.90;;;;;;5074456;28;20067;-68
2021/01/25 11:32:47;;;;;;;6.65;3.97;;;10.60;99.90;;;;;;5074629;28;20044;-67
2021/01/25 11:35:14;;;;;;;5.93;4.20;;;10.80;99.90;;;;;;5071530;28;20044;-68
2021/01/25 11:37:40;;;;;;;5.43;3.78;;;11.00;99.90;;;;;;5073086;28;20044;-67
2021/01/25 11:40:08;;;;;;;7.72;4.88;;;11.10;99.90;;;;;;5073045;28;20130;-67
2021/01/25 11:42:35;;;;;;;7.30;4.57;;;11.00;99.90;;;;;;5071130;28;20052;-68
2021/01/25 11:45:01;;;;;;;8.10;4.55;;;10.90;99.90;;;;;;5074586;28;20036;-68
2021/01/25 11:47:30;;;;;;;6.93;4.63;;;10.90;99.90;;;;;;5071856;28;20141;-68
2021/01/25 11:49:56;;;;;;;;;;;10.90;99.90;;;;;;5072213;28;20403;-67
2021/01/25 11:52:23;;;;;;;5.68;3.63;;;11.00;99.90;;;;;;5077617;28;19920;-68
2021/01/25 11:54:49;;;;;;;7.55;4.68;;;11.10;99.90;;;;;;5074017;28;20054;-68
2021/01/25 11:57:15;;;;;;;5.93;3.95;;;11.20;99.90;;;;;;5071850;28;20055;-68
2021/01/25 11:59:41;;;;;;;6.18;4.05;;;11.30;99.90;;;;;;5073957;28;20056;-68
2021/01/25 12:02:10;;;;;;;7.20;5.18;;;11.40;99.90;;;;;;5072137;28;20041;-68
2021/01/25 12:04:36;;;;;;;8.50;4.47;;;11.40;99.90;;;;;;5075132;28;20044;-67
2021/01/25 12:07:14;;;;;;;7.68;4.43;;;11.60;99.90;;;;;;5071640;28;20060;-67
2021/01/25 12:09:49;;;;;;;8.20;4.95;;;11.70;99.90;;;;;;5072220;28;20139;-68
2021/01/25 12:12:16;;;;;;;7.13;5.13;;;11.70;99.90;;;;;;5069757;28;20048;-68
2021/01/25 12:14:42;;;;;;;8.82;5.28;;;11.60;99.90;;;;;;5071417;28;20054;-67
2021/01/25 12:17:08;;;;;;;8.93;5.13;;;11.50;99.90;;;;;;5070800;28;20045;-68
2021/01/25 12:19:36;;;;;;;9.82;5.88;;;11.40;99.90;;;;;;5073532;28;20044;-67
2021/01/25 12:22:03;;;;;;;7.88;5.20;;;11.40;99.90;;;;;;5073686;28;20044;-68
2021/01/25 12:24:29;;;;;;;8.75;4.93;;;11.30;99.90;;;;;;5074992;28;20395;-68
2021/01/25 12:26:55;;;;;;;8.93;5.30;;;11.30;99.90;;;;;;5073992;28;20071;-67
2021/01/25 12:29:21;;;;;;;9.25;5.60;;;11.20;99.90;;;;;;5068754;28;20048;-68
2021/01/25 12:31:48;;;;;;;7.00;5.07;;;11.20;99.90;;;;;;5071655;28;20056;-68
2021/01/25 12:34:16;;;;;;;8.88;4.38;;;11.30;99.90;;;;;;5071970;28;20492;-68
2021/01/25 12:36:42;;;;;;;6.78;4.50;;;11.50;99.90;;;;;;5069453;28;20047;-68
2021/01/25 12:39:09;;;;;;;5.88;3.80;;;11.70;99.90;;;;;;5074919;28;20071;-68
2021/01/25 12:41:35;;;;;;;6.15;4.18;;;11.80;99.90;;;;;;5071713;28;20073;-68
2021/01/25 12:44:01;;;;;;;8.55;4.78;;;11.80;99.90;;;;;;5068508;28;20052;-68
2021/01/25 12:46:34;;;;;;;7.93;4.57;;;11.50;99.90;;;;;;5069958;28;20144;-68
2021/01/25 12:49:04;;;;;;;6.82;4.38;;;11.40;99.90;;;;;;5071857;28;20443;-68
2021/01/25 12:51:31;;;;;;;5.82;3.80;;;11.30;99.90;;;;;;5071140;28;20040;-67
2021/01/25 12:53:58;;;;;;;5.90;3.40;;;11.40;99.90;;;;;;5070607;28;20064;-68
2021/01/25 12:56:24;;;;;;;7.47;4.05;;;11.30;99.90;;;;;;5072227;28;20052;-68
2021/01/25 12:58:50;;;;;;;7.93;4.30;;;11.00;99.90;;;;;;5068636;28;20061;-67